Concord Township, Maine
Current Conditions -  °F | °C
As of 5:55 AM on Wednesday 22 Oct 2014 (Local Time) from KWVL Reporting Station
Overcast Overcast  
Wind Chill: 38°   Ceiling: 600
Heat Index: 45°   Visibility: 10mi
Dew Point: 39°   Wind: 13mph
Humidity: 81%   Direction: 30°NNE
Pressure: 30.15"   Gusts: 20mph
Location:  45.1348°N, 69.8823°W
Report Text: KWVL 220955Z 03011G17KT 10SM OVC006 07/04 A3015 RMK AO1
Loading
Personal Weather Stations






























Interactive Weather Map
Tropical Storm Tracking
New forecast layout! Learn more

10-Day Weather Forecast

Advertisements
Track Severe Weather on mobile